Time;durP1;ratioP1;P1;durP2;ratioP2;P2;SDS_P1;SDS_P2;PMS_P1;PMS_P2;Temp;Humidity;BMP_temperature;BMP_pressure;BME280_temperature;BME280_humidity;BME280_pressure;Samples;Min_cycle;Max_cycle;Signal;HPM_P1;HPM_P2
2023/11/10 00:04:11;;;;;;;0.10;0.10;;;;;;;;;;10379889;28;20430;-71
2023/11/10 00:09:15;;;;;;;0.00;0.00;;;;;;;;;;10389469;28;20383;-71
2023/11/10 00:14:15;;;;;;;0.10;0.10;;;;;;;;;;10387078;28;20053;-71
2023/11/10 00:19:16;;;;;;;0.10;0.10;;;;;;;;;;10369439;28;20770;-71
2023/11/10 00:24:16;;;;;;;0.10;0.10;;;;;;;;;;10393236;28;20480;-71
2023/11/10 00:29:16;;;;;;;0.10;0.10;;;;;;;;;;10372585;28;20026;-70
2023/11/10 00:34:17;;;;;;;0.00;0.00;;;;;;;;;;10372598;28;20056;-71
2023/11/10 00:39:19;;;;;;;0.00;0.00;;;;;;;;;;10372433;28;20022;-71
2023/11/10 00:44:19;;;;;;;0.00;0.00;;;;;;;;;;10372237;28;20022;-71
2023/11/10 00:49:21;;;;;;;0.10;0.10;;;;;;;;;;10372232;28;20468;-71
2023/11/10 00:54:21;;;;;;;0.00;0.00;;;;;;;;;;10371877;28;20391;-72
2023/11/10 00:59:21;;;;;;;0.00;0.00;;;;;;;;;;10371841;28;20022;-72
2023/11/10 01:04:21;;;;;;;0.10;0.10;;;;;;;;;;10371613;28;20109;-72
2023/11/10 01:09:22;;;;;;;0.10;0.10;;;;;;;;;;10371288;28;20018;-73
2023/11/10 01:14:22;;;;;;;0.00;0.00;;;;;;;;;;10371338;28;20053;-73
2023/11/10 01:19:23;;;;;;;0.05;0.05;;;;;;;;;;10371371;28;20061;-72
2023/11/10 01:24:23;;;;;;;0.00;0.00;;;;;;;;;;10371017;28;20018;-71
2023/11/10 01:29:24;;;;;;;0.10;0.10;;;;;;;;;;10371136;28;20024;-71
2023/11/10 01:34:24;;;;;;;0.00;0.00;;;;;;;;;;10371556;28;20017;-71
2023/11/10 01:39:24;;;;;;;0.00;0.00;;;;;;;;;;10374503;28;20018;-72
2023/11/10 01:44:25;;;;;;;0.10;0.10;;;;;;;;;;10379066;28;22414;-71
2023/11/10 01:49:28;;;;;;;0.10;0.10;;;;;;;;;;10379090;28;20372;-71
2023/11/10 01:54:34;;;;;;;0.10;0.10;;;;;;;;;;10378658;28;20452;-71
2023/11/10 01:59:34;;;;;;;0.10;0.10;;;;;;;;;;10378573;28;20056;-71
2023/11/10 02:04:36;;;;;;;0.00;0.00;;;;;;;;;;10378290;28;20056;-71
2023/11/10 02:09:36;;;;;;;0.00;0.00;;;;;;;;;;10377987;28;20136;-71
2023/11/10 02:14:36;;;;;;;0.00;0.00;;;;;;;;;;10365970;28;20101;-70
2023/11/10 02:19:37;;;;;;;0.00;0.00;;;;;;;;;;10376738;28;20365;-70
2023/11/10 02:24:39;;;;;;;0.00;0.00;;;;;;;;;;10376541;28;20055;-70
2023/11/10 02:29:40;;;;;;;0.00;0.00;;;;;;;;;;10368373;28;20013;-70
2023/11/10 02:34:40;;;;;;;0.00;0.00;;;;;;;;;;10376547;28;20508;-70
2023/11/10 02:39:40;;;;;;;0.00;0.00;;;;;;;;;;10376286;28;20030;-69
2023/11/10 02:44:41;;;;;;;0.00;0.00;;;;;;;;;;10373437;28;20072;-69
2023/11/10 02:55:18;;;;;;;0.00;0.00;;;;;;;;;;10367049;28;20408;-69
2023/11/10 03:00:19;;;;;;;0.00;0.00;;;;;;;;;;10372596;28;20010;-69
2023/11/10 03:05:20;;;;;;;0.00;0.00;;;;;;;;;;10369927;28;20049;-69
2023/11/10 03:10:20;;;;;;;0.00;0.00;;;;;;;;;;10362860;28;20055;-69
2023/11/10 03:15:21;;;;;;;0.08;0.08;;;;;;;;;;10359703;28;20027;-68
2023/11/10 03:20:23;;;;;;;0.00;0.00;;;;;;;;;;10363051;28;20022;-68
2023/11/10 03:25:23;;;;;;;0.10;0.10;;;;;;;;;;10345325;28;20049;-68
2023/11/10 03:30:23;;;;;;;0.00;0.00;;;;;;;;;;10344471;28;20044;-69
2023/11/10 03:35:24;;;;;;;0.00;0.00;;;;;;;;;;10346608;28;20021;-69
2023/11/10 03:40:25;;;;;;;0.00;0.00;;;;;;;;;;10347290;28;20377;-69
2023/11/10 03:45:25;;;;;;;0.00;0.00;;;;;;;;;;10342311;28;20022;-70
2023/11/10 03:50:25;;;;;;;0.00;0.00;;;;;;;;;;10341288;28;20021;-70
2023/11/10 03:55:25;;;;;;;0.00;0.00;;;;;;;;;;10344608;28;20037;-69
2023/11/10 04:00:26;;;;;;;0.00;0.00;;;;;;;;;;10347540;28;20084;-69
2023/11/10 04:05:26;;;;;;;0.00;0.00;;;;;;;;;;10360388;28;20025;-69
2023/11/10 04:10:26;;;;;;;0.00;0.00;;;;;;;;;;10359054;28;20284;-69
2023/11/10 04:15:26;;;;;;;0.03;0.03;;;;;;;;;;10370779;28;20480;-69
2023/11/10 04:20:26;;;;;;;0.10;0.10;;;;;;;;;;10363303;28;20026;-69
2023/11/10 04:25:27;;;;;;;0.00;0.00;;;;;;;;;;10366926;28;20044;-69
2023/11/10 04:30:28;;;;;;;0.00;0.00;;;;;;;;;;10358706;28;20014;-69
2023/11/10 04:35:28;;;;;;;0.00;0.00;;;;;;;;;;10365566;28;20072;-69
2023/11/10 04:40:28;;;;;;;0.10;0.10;;;;;;;;;;10366472;28;20394;-72
2023/11/10 04:45:29;;;;;;;0.00;0.00;;;;;;;;;;10359071;28;20019;-70
2023/11/10 04:50:29;;;;;;;0.10;0.10;;;;;;;;;;10362645;28;20651;-69
2023/11/10 04:55:29;;;;;;;0.05;0.05;;;;;;;;;;10366404;28;20407;-69
2023/11/10 05:00:30;;;;;;;0.00;0.00;;;;;;;;;;10369390;28;20067;-69
2023/11/10 05:05:30;;;;;;;0.10;0.10;;;;;;;;;;10361101;28;20028;-69
2023/11/10 05:10:30;;;;;;;0.08;0.08;;;;;;;;;;10363054;28;20017;-69
2023/11/10 05:15:30;;;;;;;0.00;0.00;;;;;;;;;;10359839;28;20079;-69
2023/11/10 05:20:31;;;;;;;0.10;0.10;;;;;;;;;;10358588;28;20021;-69
2023/11/10 05:25:32;;;;;;;0.00;0.00;;;;;;;;;;10359969;28;20281;-69
2023/11/10 05:30:32;;;;;;;0.10;0.10;;;;;;;;;;10364488;28;20387;-69
2023/11/10 05:35:32;;;;;;;0.00;0.00;;;;;;;;;;10380815;28;20505;-69
2023/11/10 05:40:33;;;;;;;0.08;0.08;;;;;;;;;;10357446;28;20101;-69
2023/11/10 05:45:33;;;;;;;0.00;0.00;;;;;;;;;;10367160;28;20013;-69
2023/11/10 05:50:33;;;;;;;0.10;0.10;;;;;;;;;;10362728;28;20087;-69
2023/11/10 05:55:34;;;;;;;0.00;0.00;;;;;;;;;;10367487;28;20037;-70
2023/11/10 06:00:34;;;;;;;0.10;0.10;;;;;;;;;;10360427;28;20025;-69
2023/11/10 06:05:35;;;;;;;0.05;0.05;;;;;;;;;;10367302;28;20040;-70
2023/11/10 06:10:35;;;;;;;0.00;0.00;;;;;;;;;;10358058;28;20021;-70
2023/11/10 06:15:35;;;;;;;0.10;0.10;;;;;;;;;;10373011;28;20033;-69
2023/11/10 06:20:35;;;;;;;0.10;0.10;;;;;;;;;;10367329;28;20097;-70
2023/11/10 06:25:35;;;;;;;0.00;0.00;;;;;;;;;;10363385;28;20018;-70
2023/11/10 06:30:36;;;;;;;0.00;0.00;;;;;;;;;;10374004;28;20243;-69
2023/11/10 06:35:36;;;;;;;0.08;0.08;;;;;;;;;;10376859;28;20494;-70
2023/11/10 06:40:36;;;;;;;0.00;0.00;;;;;;;;;;10372258;28;20380;-70
2023/11/10 06:45:36;;;;;;;0.00;0.00;;;;;;;;;;10362632;28;20014;-70
2023/11/10 06:50:36;;;;;;;0.00;0.00;;;;;;;;;;10367492;28;20446;-69
2023/11/10 06:55:37;;;;;;;0.00;0.00;;;;;;;;;;10364148;28;20269;-69
2023/11/10 07:00:38;;;;;;;0.00;0.00;;;;;;;;;;10364036;28;20022;-70
2023/11/10 07:05:39;;;;;;;0.00;0.00;;;;;;;;;;10374263;28;20375;-69
2023/11/10 07:10:43;;;;;;;0.00;0.00;;;;;;;;;;10370651;28;20014;-69
2023/11/10 07:15:43;;;;;;;0.10;0.10;;;;;;;;;;10377494;28;20028;-70
2023/11/10 07:20:44;;;;;;;0.00;0.00;;;;;;;;;;10369627;28;20548;-69
2023/11/10 07:25:45;;;;;;;0.05;0.05;;;;;;;;;;10377331;28;20026;-69
2023/11/10 07:30:45;;;;;;;0.00;0.00;;;;;;;;;;10376366;28;20021;-70
2023/11/10 07:35:45;;;;;;;0.00;0.00;;;;;;;;;;10370368;28;20018;-69
2023/11/10 07:40:46;;;;;;;0.00;0.00;;;;;;;;;;10384926;28;20759;-69
2023/11/10 07:45:46;;;;;;;0.00;0.00;;;;;;;;;;10378970;28;20400;-69
2023/11/10 07:50:46;;;;;;;0.00;0.00;;;;;;;;;;10373850;28;20166;-70
2023/11/10 07:55:46;;;;;;;0.08;0.08;;;;;;;;;;10377729;28;20072;-71
2023/11/10 08:00:47;;;;;;;0.10;0.10;;;;;;;;;;10382186;28;20029;-70
2023/11/10 08:05:49;;;;;;;0.00;0.00;;;;;;;;;;10391185;28;20139;-70
2023/11/10 08:10:49;;;;;;;0.10;0.10;;;;;;;;;;10369096;28;20419;-70
2023/11/10 08:15:50;;;;;;;0.00;0.00;;;;;;;;;;10365921;28;20022;-70
2023/11/10 08:20:50;;;;;;;0.10;0.10;;;;;;;;;;10363791;28;20382;-70
2023/11/10 08:25:50;;;;;;;0.00;0.00;;;;;;;;;;10364863;28;20033;-71
2023/11/10 08:30:51;;;;;;;0.00;0.00;;;;;;;;;;10370029;28;20105;-71
2023/11/10 08:35:52;;;;;;;0.00;0.00;;;;;;;;;;10378776;28;20018;-70
2023/11/10 08:40:53;;;;;;;0.00;0.00;;;;;;;;;;10370302;28;20026;-70
2023/11/10 08:45:54;;;;;;;0.10;0.10;;;;;;;;;;10371041;28;20101;-70
2023/11/10 08:50:54;;;;;;;0.00;0.00;;;;;;;;;;10374329;28;20104;-70
2023/11/10 08:55:54;;;;;;;0.00;0.00;;;;;;;;;;10383590;28;20088;-70
2023/11/10 09:00:54;;;;;;;0.10;0.10;;;;;;;;;;10373654;28;20028;-71
2023/11/10 09:05:54;;;;;;;0.00;0.00;;;;;;;;;;10372042;28;20021;-70
2023/11/10 09:10:55;;;;;;;0.10;0.10;;;;;;;;;;10371352;28;20044;-71
2023/11/10 09:15:55;;;;;;;0.00;0.00;;;;;;;;;;10383082;28;20029;-71
2023/11/10 09:20:55;;;;;;;0.10;0.10;;;;;;;;;;10366315;28;20040;-71
2023/11/10 09:25:56;;;;;;;0.10;0.10;;;;;;;;;;10372793;28;20280;-70
2023/11/10 09:30:56;;;;;;;0.10;0.10;;;;;;;;;;10371356;28;20252;-70
2023/11/10 09:35:58;;;;;;;0.10;0.10;;;;;;;;;;10379066;28;20030;-70
2023/11/10 09:40:58;;;;;;;0.00;0.00;;;;;;;;;;10365007;28;20027;-70
2023/11/10 09:46:01;;;;;;;0.00;0.00;;;;;;;;;;10354423;28;20562;-70
2023/11/10 09:51:03;;;;;;;0.00;0.00;;;;;;;;;;10378186;28;20479;-70
2023/11/10 09:56:03;;;;;;;0.10;0.10;;;;;;;;;;10359423;28;20018;-70
2023/11/10 10:01:04;;;;;;;0.00;0.00;;;;;;;;;;10372205;28;20014;-70
2023/11/10 10:06:06;;;;;;;0.00;0.00;;;;;;;;;;10369503;28;20014;-70
2023/11/10 10:11:06;;;;;;;0.10;0.10;;;;;;;;;;10367202;28;20026;-71
2023/11/10 10:16:07;;;;;;;0.08;0.08;;;;;;;;;;10374463;28;20036;-71
2023/11/10 10:21:08;;;;;;;0.00;0.00;;;;;;;;;;10366232;28;20112;-70
2023/11/10 10:26:10;;;;;;;0.00;0.00;;;;;;;;;;10368946;28;20053;-70
2023/11/10 10:31:11;;;;;;;0.10;0.10;;;;;;;;;;10378341;28;20101;-71
2023/11/10 10:36:13;;;;;;;0.10;0.10;;;;;;;;;;10376703;28;20104;-70
2023/11/10 10:41:16;;;;;;;0.10;0.10;;;;;;;;;;10376021;28;20024;-71
2023/11/10 10:46:19;;;;;;;0.00;0.00;;;;;;;;;;10376145;28;20361;-70
2023/11/10 10:51:20;;;;;;;0.00;0.00;;;;;;;;;;10382021;28;20017;-69
2023/11/10 10:56:22;;;;;;;0.10;0.10;;;;;;;;;;10366756;28;20112;-70
2023/11/10 11:01:22;;;;;;;0.00;0.00;;;;;;;;;;10365122;28;20022;-70
2023/11/10 11:06:28;;;;;;;0.05;0.05;;;;;;;;;;10386575;28;20026;-69
2023/11/10 11:11:34;;;;;;;0.10;0.10;;;;;;;;;;10381111;28;20020;-69
2023/11/10 11:17:00;;;;;;;0.10;0.10;;;;;;;;;;10375680;28;20080;-69
2023/11/10 11:22:01;;;;;;;0.10;0.10;;;;;;;;;;10376893;28;20445;-69
2023/11/10 11:27:02;;;;;;;0.10;0.10;;;;;;;;;;10366739;28;20022;-69
2023/11/10 11:32:03;;;;;;;0.10;0.10;;;;;;;;;;10369723;28;20113;-69
2023/11/10 11:37:07;;;;;;;0.08;0.08;;;;;;;;;;10366135;28;20026;-69
2023/11/10 11:42:07;;;;;;;0.10;0.10;;;;;;;;;;10366786;28;20101;-69
2023/11/10 11:47:09;;;;;;;0.10;0.10;;;;;;;;;;10368764;28;20018;-69
2023/11/10 11:52:11;;;;;;;0.10;0.10;;;;;;;;;;10370855;28;20087;-69
2023/11/10 11:57:11;;;;;;;0.10;0.10;;;;;;;;;;10367810;28;20021;-69
2023/11/10 12:02:13;;;;;;;0.05;0.05;;;;;;;;;;10366822;28;20350;-69
2023/11/10 12:07:16;;;;;;;0.10;0.10;;;;;;;;;;10366310;28;20018;-69
2023/11/10 12:12:16;;;;;;;0.10;0.10;;;;;;;;;;10365793;28;20022;-69
2023/11/10 12:17:16;;;;;;;0.10;0.10;;;;;;;;;;10362131;28;20407;-69
2023/11/10 12:22:18;;;;;;;0.05;0.05;;;;;;;;;;10364590;28;20482;-69
2023/11/10 12:27:18;;;;;;;0.10;0.10;;;;;;;;;;10360255;28;20014;-69
2023/11/10 12:32:18;;;;;;;0.10;0.10;;;;;;;;;;10365785;28;20017;-69
2023/11/10 12:37:19;;;;;;;0.10;0.10;;;;;;;;;;10358651;28;20017;-69
2023/11/10 12:42:20;;;;;;;0.10;0.10;;;;;;;;;;10362310;28;20104;-69
2023/11/10 12:47:29;;;;;;;0.10;0.10;;;;;;;;;;10357923;28;20471;-69
2023/11/10 12:52:30;;;;;;;0.10;0.10;;;;;;;;;;10358524;28;20025;-69
2023/11/10 12:57:30;;;;;;;0.10;0.10;;;;;;;;;;10356386;28;20041;-70
2023/11/10 13:02:31;;;;;;;0.10;0.10;;;;;;;;;;10354521;28;20018;-69
2023/11/10 13:07:31;;;;;;;0.10;0.10;;;;;;;;;;10352957;28;20029;-69
2023/11/10 13:12:33;;;;;;;0.10;0.10;;;;;;;;;;10354902;28;20063;-68
2023/11/10 13:17:33;;;;;;;0.00;0.00;;;;;;;;;;10354423;28;20041;-68
2023/11/10 13:22:33;;;;;;;0.10;0.10;;;;;;;;;;10354921;28;20022;-68
2023/11/10 13:27:33;;;;;;;0.00;0.00;;;;;;;;;;10350832;28;20395;-69
2023/11/10 13:32:34;;;;;;;0.10;0.10;;;;;;;;;;10357123;28;20022;-69
2023/11/10 13:37:36;;;;;;;0.10;0.10;;;;;;;;;;10352843;28;20021;-68
2023/11/10 13:42:37;;;;;;;0.10;0.10;;;;;;;;;;10355581;28;20039;-69
2023/11/10 13:47:40;;;;;;;0.00;0.00;;;;;;;;;;10349165;28;20498;-69
2023/11/10 13:52:41;;;;;;;0.00;0.00;;;;;;;;;;10347780;28;20064;-70
2023/11/10 13:57:41;;;;;;;0.10;0.10;;;;;;;;;;10348048;28;20072;-70
2023/11/10 14:02:42;;;;;;;0.00;0.00;;;;;;;;;;10358292;28;20028;-70
2023/11/10 14:07:43;;;;;;;0.10;0.10;;;;;;;;;;10347898;28;20029;-69
2023/11/10 14:12:43;;;;;;;0.10;0.10;;;;;;;;;;10344082;28;20256;-69
2023/11/10 14:17:44;;;;;;;0.10;0.10;;;;;;;;;;10344552;28;20097;-69
2023/11/10 14:22:44;;;;;;;0.10;0.10;;;;;;;;;;10345987;28;20033;-69
2023/11/10 14:27:44;;;;;;;0.10;0.10;;;;;;;;;;10343557;28;20080;-69
2023/11/10 14:32:45;;;;;;;0.10;0.10;;;;;;;;;;10347342;28;20018;-69
2023/11/10 14:37:45;;;;;;;0.10;0.10;;;;;;;;;;10342711;28;20105;-69
2023/11/10 14:42:47;;;;;;;0.10;0.10;;;;;;;;;;10348829;28;20026;-69
2023/11/10 14:47:49;;;;;;;0.10;0.10;;;;;;;;;;10347335;28;20636;-69
2023/11/10 14:52:50;;;;;;;0.00;0.00;;;;;;;;;;10349945;28;20418;-69
2023/11/10 14:57:50;;;;;;;0.10;0.10;;;;;;;;;;10351334;28;20018;-69
2023/11/10 15:02:51;;;;;;;0.10;0.10;;;;;;;;;;10350785;28;20514;-69
2023/11/10 15:07:51;;;;;;;0.10;0.10;;;;;;;;;;10346920;28;20464;-69
2023/11/10 15:12:52;;;;;;;0.10;0.10;;;;;;;;;;10346918;28;20842;-69
2023/11/10 15:17:52;;;;;;;0.10;0.10;;;;;;;;;;10349342;28;20400;-69
2023/11/10 15:22:52;;;;;;;0.08;0.08;;;;;;;;;;10346074;28;20046;-69
2023/11/10 15:27:52;;;;;;;0.10;0.10;;;;;;;;;;10362050;28;20392;-69
2023/11/10 15:32:55;;;;;;;0.10;0.10;;;;;;;;;;10350220;28;20022;-69
2023/11/10 15:37:56;;;;;;;0.10;0.10;;;;;;;;;;10344789;28;20072;-69
2023/11/10 15:42:57;;;;;;;0.10;0.10;;;;;;;;;;10344267;28;20472;-69
2023/11/10 15:47:57;;;;;;;0.10;0.10;;;;;;;;;;10350815;28;20129;-69
2023/11/10 15:52:58;;;;;;;0.10;0.10;;;;;;;;;;10385302;28;20444;-68
2023/11/10 15:57:58;;;;;;;0.00;0.00;;;;;;;;;;10382876;28;20025;-69
2023/11/10 16:02:59;;;;;;;0.10;0.10;;;;;;;;;;10370918;28;20443;-69
2023/11/10 16:07:59;;;;;;;0.10;0.10;;;;;;;;;;10376038;28;20034;-69
2023/11/10 16:13:00;;;;;;;0.10;0.10;;;;;;;;;;10367186;28;20022;-69
2023/11/10 16:18:00;;;;;;;0.00;0.00;;;;;;;;;;10376991;28;20097;-69
2023/11/10 16:23:00;;;;;;;0.10;0.10;;;;;;;;;;10378164;28;20137;-69
2023/11/10 16:28:00;;;;;;;0.10;0.10;;;;;;;;;;10377454;28;20057;-69
2023/11/10 16:33:00;;;;;;;0.05;0.05;;;;;;;;;;10373864;28;20017;-69
2023/11/10 16:38:02;;;;;;;0.00;0.00;;;;;;;;;;10376237;28;20018;-69
2023/11/10 16:43:02;;;;;;;0.10;0.10;;;;;;;;;;10374281;28;20403;-69
2023/11/10 16:48:02;;;;;;;0.10;0.10;;;;;;;;;;10373599;28;20025;-69
2023/11/10 16:53:04;;;;;;;0.00;0.00;;;;;;;;;;10366196;28;20037;-69
2023/11/10 16:58:04;;;;;;;0.10;0.10;;;;;;;;;;10367558;28;20558;-70
2023/11/10 17:03:05;;;;;;;0.00;0.00;;;;;;;;;;10369437;28;20048;-69
2023/11/10 17:08:06;;;;;;;0.10;0.10;;;;;;;;;;10375769;28;20013;-70
2023/11/10 17:13:06;;;;;;;0.10;0.10;;;;;;;;;;10373279;28;20023;-69
2023/11/10 17:18:09;;;;;;;0.00;0.00;;;;;;;;;;10371679;28;20435;-69
2023/11/10 17:23:11;;;;;;;0.05;0.05;;;;;;;;;;10364933;28;20050;-69
2023/11/10 17:28:12;;;;;;;0.10;0.10;;;;;;;;;;10358648;28;20052;-69
2023/11/10 17:33:12;;;;;;;0.00;0.00;;;;;;;;;;10370596;28;20455;-69
2023/11/10 17:38:14;;;;;;;0.00;0.00;;;;;;;;;;10364605;28;20436;-69
2023/11/10 17:43:14;;;;;;;0.00;0.00;;;;;;;;;;10370727;28;20018;-68
2023/11/10 17:48:14;;;;;;;0.10;0.10;;;;;;;;;;10364398;28;20025;-70
2023/11/10 17:53:15;;;;;;;0.00;0.00;;;;;;;;;;10370051;28;20033;-69
2023/11/10 17:58:15;;;;;;;0.10;0.10;;;;;;;;;;10374983;28;20025;-69
2023/11/10 18:03:15;;;;;;;0.03;0.03;;;;;;;;;;10367025;28;20042;-69
2023/11/10 18:08:15;;;;;;;0.10;0.10;;;;;;;;;;10362455;28;20394;-69
2023/11/10 18:13:16;;;;;;;0.00;0.00;;;;;;;;;;10365233;28;20022;-70
2023/11/10 18:18:16;;;;;;;0.10;0.10;;;;;;;;;;10364998;28;20022;-68
2023/11/10 18:23:16;;;;;;;0.10;0.10;;;;;;;;;;10375485;28;20272;-68
2023/11/10 18:28:17;;;;;;;0.10;0.10;;;;;;;;;;10380005;28;20081;-69
2023/11/10 18:33:17;;;;;;;0.00;0.00;;;;;;;;;;10373236;28;20025;-69
2023/11/10 18:38:17;;;;;;;0.10;0.10;;;;;;;;;;10376387;28;20024;-69
2023/11/10 18:43:17;;;;;;;0.10;0.10;;;;;;;;;;10370804;28;20105;-69
2023/11/10 18:48:18;;;;;;;0.00;0.00;;;;;;;;;;10373671;28;20014;-69
2023/11/10 18:53:18;;;;;;;0.00;0.00;;;;;;;;;;10374464;28;20105;-69
2023/11/10 18:58:21;;;;;;;0.10;0.10;;;;;;;;;;10365014;28;20030;-70
2023/11/10 19:03:21;;;;;;;0.10;0.10;;;;;;;;;;10370559;28;20072;-69
2023/11/10 19:08:21;;;;;;;0.00;0.00;;;;;;;;;;10378102;28;20067;-70
2023/11/10 19:13:21;;;;;;;0.10;0.10;;;;;;;;;;10388203;28;20623;-69
2023/11/10 19:18:22;;;;;;;0.00;0.00;;;;;;;;;;10378638;28;20109;-69
2023/11/10 19:23:22;;;;;;;0.10;0.10;;;;;;;;;;10386938;28;20049;-70
2023/11/10 19:28:23;;;;;;;0.00;0.00;;;;;;;;;;10369369;28;20029;-69
2023/11/10 19:33:24;;;;;;;0.10;0.10;;;;;;;;;;10377094;28;20034;-70
2023/11/10 19:38:24;;;;;;;0.00;0.00;;;;;;;;;;10373835;28;20403;-70
2023/11/10 19:43:24;;;;;;;0.00;0.00;;;;;;;;;;10375056;28;20332;-71
2023/11/10 19:48:24;;;;;;;0.00;0.00;;;;;;;;;;10374678;28;20030;-70
2023/11/10 19:53:24;;;;;;;0.10;0.10;;;;;;;;;;10373111;28;20084;-71
2023/11/10 19:58:25;;;;;;;0.10;0.10;;;;;;;;;;10374333;28;20029;-71
2023/11/10 20:03:25;;;;;;;0.10;0.10;;;;;;;;;;10374053;28;20299;-71
2023/11/10 20:08:25;;;;;;;0.00;0.00;;;;;;;;;;10372580;28;20026;-71
2023/11/10 20:13:27;;;;;;;0.00;0.00;;;;;;;;;;10373654;28;20029;-71
2023/11/10 20:18:27;;;;;;;0.10;0.10;;;;;;;;;;10374281;28;20026;-70
2023/11/10 20:23:27;;;;;;;0.10;0.10;;;;;;;;;;10374525;28;20446;-70
2023/11/10 20:28:27;;;;;;;0.08;0.08;;;;;;;;;;10387928;28;20390;-70
2023/11/10 20:33:28;;;;;;;0.00;0.00;;;;;;;;;;10413828;28;20052;-70
2023/11/10 20:38:28;;;;;;;0.10;0.10;;;;;;;;;;10413658;28;20368;-70
2023/11/10 20:43:28;;;;;;;0.00;0.00;;;;;;;;;;10413033;28;20673;-70
2023/11/10 20:48:31;;;;;;;0.00;0.00;;;;;;;;;;10413313;28;20398;-70
2023/11/10 20:53:34;;;;;;;0.10;0.10;;;;;;;;;;10381758;28;20026;-70
2023/11/10 20:58:34;;;;;;;0.00;0.00;;;;;;;;;;10372096;28;20054;-69
2023/11/10 21:03:35;;;;;;;0.10;0.10;;;;;;;;;;10370545;28;20491;-70
2023/11/10 21:08:35;;;;;;;0.03;0.03;;;;;;;;;;10411625;28;20023;-70
2023/11/10 21:13:35;;;;;;;0.10;0.10;;;;;;;;;;10412418;28;20506;-70
2023/11/10 21:18:36;;;;;;;0.00;0.00;;;;;;;;;;10408714;28;20022;-70
2023/11/10 21:23:36;;;;;;;0.00;0.00;;;;;;;;;;10386785;28;20339;-70
2023/11/10 21:28:38;;;;;;;0.10;0.10;;;;;;;;;;10368888;28;20037;-70
2023/11/10 21:33:39;;;;;;;0.00;0.00;;;;;;;;;;10371029;28;20068;-70
2023/11/10 21:38:39;;;;;;;0.10;0.10;;;;;;;;;;10379010;28;20079;-70
2023/11/10 21:43:39;;;;;;;0.00;0.00;;;;;;;;;;10370864;28;20025;-70
2023/11/10 21:48:39;;;;;;;0.10;0.10;;;;;;;;;;10378707;28;20018;-70
2023/11/10 21:53:40;;;;;;;0.00;0.00;;;;;;;;;;10373947;28;20029;-69
2023/11/10 21:58:40;;;;;;;0.00;0.00;;;;;;;;;;10393005;28;20113;-69
2023/11/10 22:03:41;;;;;;;0.10;0.10;;;;;;;;;;10409118;28;20031;-70
2023/11/10 22:08:41;;;;;;;0.10;0.10;;;;;;;;;;10404423;28;20026;-70
2023/11/10 22:13:41;;;;;;;0.05;0.05;;;;;;;;;;10380212;28;20049;-70
2023/11/10 22:18:41;;;;;;;0.00;0.00;;;;;;;;;;10395202;28;20018;-70
2023/11/10 22:23:41;;;;;;;0.00;0.00;;;;;;;;;;10385994;28;20476;-70
2023/11/10 22:28:42;;;;;;;0.00;0.00;;;;;;;;;;10369604;28;20105;-70
2023/11/10 22:33:42;;;;;;;0.00;0.00;;;;;;;;;;10379250;28;20054;-70
2023/11/10 22:38:43;;;;;;;0.08;0.08;;;;;;;;;;10389531;28;20021;-70
2023/11/10 22:43:43;;;;;;;0.10;0.10;;;;;;;;;;10386003;28;20037;-70
2023/11/10 22:48:44;;;;;;;0.08;0.08;;;;;;;;;;10401195;28;20022;-71
2023/11/10 22:53:44;;;;;;;0.10;0.10;;;;;;;;;;10398115;28;20029;-71
2023/11/10 22:58:44;;;;;;;0.05;0.05;;;;;;;;;;10376408;28;20029;-71
2023/11/10 23:03:44;;;;;;;0.08;0.08;;;;;;;;;;10367916;28;21677;-71
2023/11/10 23:08:45;;;;;;;0.10;0.10;;;;;;;;;;10347168;28;20027;-71
2023/11/10 23:13:47;;;;;;;0.10;0.10;;;;;;;;;;10335528;28;20281;-71
2023/11/10 23:18:48;;;;;;;0.00;0.00;;;;;;;;;;10360528;28;20028;-70
2023/11/10 23:23:48;;;;;;;0.10;0.10;;;;;;;;;;10375481;28;20036;-70
2023/11/10 23:28:49;;;;;;;0.00;0.00;;;;;;;;;;10375530;28;20330;-70
2023/11/10 23:33:49;;;;;;;0.03;0.03;;;;;;;;;;10375292;28;20025;-71
2023/11/10 23:38:50;;;;;;;0.10;0.10;;;;;;;;;;10390209;28;20168;-71
2023/11/10 23:43:50;;;;;;;0.10;0.10;;;;;;;;;;10380249;28;20025;-71
2023/11/10 23:48:54;;;;;;;0.10;0.10;;;;;;;;;;10391380;28;20052;-70
2023/11/10 23:53:54;;;;;;;0.10;0.10;;;;;;;;;;10374565;28;20022;-69
2023/11/10 23:58:56;;;;;;;0.10;0.10;;;;;;;;;;10406605;28;20390;-71
